sensor_id;sensor_type;location;lat;lon;timestamp;P1;durP1;ratioP1;P2;durP2;ratioP2
42754;SDS011;28407;51.830;5.684;2023-04-01T00:01:54;2.65;;;2.00;;
42754;SDS011;28407;51.830;5.684;2023-04-01T00:03:55;2.10;;;1.90;;
42754;SDS011;28407;51.830;5.684;2023-04-01T00:05:56;3.35;;;2.20;;
42754;SDS011;28407;51.830;5.684;2023-04-01T00:07:57;5.82;;;2.75;;
42754;SDS011;28407;51.830;5.684;2023-04-01T00:09:58;3.28;;;2.40;;
42754;SDS011;28407;51.830;5.684;2023-04-01T00:11:59;3.20;;;2.05;;
42754;SDS011;28407;51.830;5.684;2023-04-01T00:13:59;4.88;;;2.55;;
42754;SDS011;28407;51.830;5.684;2023-04-01T00:16:00;2.42;;;2.20;;
42754;SDS011;28407;51.830;5.684;2023-04-01T00:18:01;3.80;;;2.75;;
42754;SDS011;28407;51.830;5.684;2023-04-01T00:20:02;3.08;;;2.50;;
42754;SDS011;28407;51.830;5.684;2023-04-01T00:22:03;2.80;;;2.60;;
42754;SDS011;28407;51.830;5.684;2023-04-01T00:24:04;3.65;;;2.67;;
42754;SDS011;28407;51.830;5.684;2023-04-01T00:26:04;2.45;;;2.25;;
42754;SDS011;28407;51.830;5.684;2023-04-01T00:28:05;2.63;;;2.42;;
42754;SDS011;28407;51.830;5.684;2023-04-01T00:30:06;4.50;;;2.75;;
42754;SDS011;28407;51.830;5.684;2023-04-01T00:32:08;5.00;;;2.75;;
42754;SDS011;28407;51.830;5.684;2023-04-01T00:34:08;3.08;;;2.47;;
42754;SDS011;28407;51.830;5.684;2023-04-01T00:38:11;3.35;;;2.95;;
42754;SDS011;28407;51.830;5.684;2023-04-01T00:40:22;3.15;;;2.85;;
42754;SDS011;28407;51.830;5.684;2023-04-01T00:42:28;3.20;;;2.90;;
42754;SDS011;28407;51.830;5.684;2023-04-01T00:44:30;3.13;;;2.67;;
42754;SDS011;28407;51.830;5.684;2023-04-01T00:46:32;3.10;;;2.80;;
42754;SDS011;28407;51.830;5.684;2023-04-01T00:48:34;3.42;;;3.05;;
42754;SDS011;28407;51.830;5.684;2023-04-01T00:50:39;3.70;;;3.40;;
42754;SDS011;28407;51.830;5.684;2023-04-01T00:52:42;4.03;;;3.05;;
42754;SDS011;28407;51.830;5.684;2023-04-01T00:54:44;3.20;;;2.90;;
42754;SDS011;28407;51.830;5.684;2023-04-01T00:56:48;6.47;;;3.47;;
42754;SDS011;28407;51.830;5.684;2023-04-01T00:58:59;3.35;;;3.05;;
42754;SDS011;28407;51.830;5.684;2023-04-01T01:01:04;3.47;;;3.17;;
42754;SDS011;28407;51.830;5.684;2023-04-01T01:03:08;3.50;;;3.13;;
42754;SDS011;28407;51.830;5.684;2023-04-01T01:05:11;4.15;;;3.22;;
42754;SDS011;28407;51.830;5.684;2023-04-01T01:12:13;3.97;;;3.50;;
42754;SDS011;28407;51.830;5.684;2023-04-01T01:17:02;3.72;;;3.42;;
42754;SDS011;28407;51.830;5.684;2023-04-01T01:21:42;3.70;;;3.40;;
42754;SDS011;28407;51.830;5.684;2023-04-01T01:27:15;4.53;;;3.50;;
42754;SDS011;28407;51.830;5.684;2023-04-01T01:31:44;4.28;;;3.58;;
42754;SDS011;28407;51.830;5.684;2023-04-01T01:34:15;4.47;;;4.07;;
42754;SDS011;28407;51.830;5.684;2023-04-01T01:36:40;5.20;;;3.40;;
42754;SDS011;28407;51.830;5.684;2023-04-01T01:38:45;4.28;;;3.88;;
42754;SDS011;28407;51.830;5.684;2023-04-01T01:40:49;3.47;;;3.17;;
42754;SDS011;28407;51.830;5.684;2023-04-01T01:42:55;3.63;;;3.33;;
42754;SDS011;28407;51.830;5.684;2023-04-01T01:45:00;3.78;;;3.47;;
42754;SDS011;28407;51.830;5.684;2023-04-01T01:47:03;4.13;;;3.38;;
42754;SDS011;28407;51.830;5.684;2023-04-01T01:49:03;4.03;;;3.63;;
42754;SDS011;28407;51.830;5.684;2023-04-01T01:51:07;3.63;;;3.33;;
42754;SDS011;28407;51.830;5.684;2023-04-01T01:53:09;3.38;;;3.08;;
42754;SDS011;28407;51.830;5.684;2023-04-01T01:55:31;3.53;;;3.20;;
42754;SDS011;28407;51.830;5.684;2023-04-01T01:57:34;3.85;;;3.40;;
42754;SDS011;28407;51.830;5.684;2023-04-01T01:59:40;3.20;;;2.90;;
42754;SDS011;28407;51.830;5.684;2023-04-01T02:01:53;3.60;;;3.03;;
42754;SDS011;28407;51.830;5.684;2023-04-01T02:03:58;3.50;;;3.20;;
42754;SDS011;28407;51.830;5.684;2023-04-01T02:06:01;3.15;;;2.85;;
42754;SDS011;28407;51.830;5.684;2023-04-01T02:08:10;2.70;;;2.50;;
42754;SDS011;28407;51.830;5.684;2023-04-01T02:10:12;2.78;;;2.58;;
42754;SDS011;28407;51.830;5.684;2023-04-01T02:12:14;3.77;;;2.90;;
42754;SDS011;28407;51.830;5.684;2023-04-01T02:14:18;3.75;;;2.60;;
42754;SDS011;28407;51.830;5.684;2023-04-01T02:16:23;3.53;;;2.65;;
42754;SDS011;28407;51.830;5.684;2023-04-01T02:18:28;3.75;;;2.63;;
42754;SDS011;28407;51.830;5.684;2023-04-01T02:20:30;3.17;;;2.97;;
42754;SDS011;28407;51.830;5.684;2023-04-01T02:22:32;2.88;;;2.58;;
42754;SDS011;28407;51.830;5.684;2023-04-01T02:24:35;2.20;;;2.00;;
42754;SDS011;28407;51.830;5.684;2023-04-01T02:26:38;2.97;;;2.30;;
42754;SDS011;28407;51.830;5.684;2023-04-01T02:28:40;2.45;;;2.25;;
42754;SDS011;28407;51.830;5.684;2023-04-01T02:30:42;2.80;;;2.53;;
42754;SDS011;28407;51.830;5.684;2023-04-01T02:32:44;2.55;;;2.35;;
42754;SDS011;28407;51.830;5.684;2023-04-01T02:34:46;2.72;;;2.50;;
42754;SDS011;28407;51.830;5.684;2023-04-01T02:36:48;2.67;;;2.47;;
42754;SDS011;28407;51.830;5.684;2023-04-01T02:38:51;2.75;;;2.47;;
42754;SDS011;28407;51.830;5.684;2023-04-01T02:40:56;3.30;;;2.20;;
42754;SDS011;28407;51.830;5.684;2023-04-01T02:42:59;2.50;;;2.28;;
42754;SDS011;28407;51.830;5.684;2023-04-01T02:44:59;2.63;;;2.13;;
42754;SDS011;28407;51.830;5.684;2023-04-01T02:47:00;2.30;;;2.10;;
42754;SDS011;28407;51.830;5.684;2023-04-01T02:49:01;2.30;;;2.10;;
42754;SDS011;28407;51.830;5.684;2023-04-01T02:51:03;2.85;;;2.65;;
42754;SDS011;28407;51.830;5.684;2023-04-01T02:53:03;2.10;;;1.90;;
42754;SDS011;28407;51.830;5.684;2023-04-01T02:55:06;2.10;;;1.90;;
42754;SDS011;28407;51.830;5.684;2023-04-01T02:57:07;3.50;;;2.20;;
42754;SDS011;28407;51.830;5.684;2023-04-01T02:59:07;2.40;;;2.20;;
42754;SDS011;28407;51.830;5.684;2023-04-01T03:01:08;2.33;;;2.00;;
42754;SDS011;28407;51.830;5.684;2023-04-01T03:03:09;2.33;;;2.10;;
42754;SDS011;28407;51.830;5.684;2023-04-01T03:05:09;2.15;;;2.00;;
42754;SDS011;28407;51.830;5.684;2023-04-01T03:07:10;2.28;;;2.08;;
42754;SDS011;28407;51.830;5.684;2023-04-01T03:09:11;4.70;;;2.17;;
42754;SDS011;28407;51.830;5.684;2023-04-01T03:11:12;2.00;;;1.90;;
42754;SDS011;28407;51.830;5.684;2023-04-01T03:13:13;2.33;;;2.08;;
42754;SDS011;28407;51.830;5.684;2023-04-01T03:15:14;2.40;;;2.20;;
42754;SDS011;28407;51.830;5.684;2023-04-01T03:17:15;2.75;;;2.55;;
42754;SDS011;28407;51.830;5.684;2023-04-01T03:19:16;2.30;;;2.10;;
42754;SDS011;28407;51.830;5.684;2023-04-01T03:21:17;2.28;;;2.10;;
42754;SDS011;28407;51.830;5.684;2023-04-01T03:23:23;2.60;;;2.40;;
42754;SDS011;28407;51.830;5.684;2023-04-01T03:25:24;2.33;;;2.08;;
42754;SDS011;28407;51.830;5.684;2023-04-01T03:27:25;2.40;;;2.20;;
42754;SDS011;28407;51.830;5.684;2023-04-01T03:29:26;2.65;;;2.45;;
42754;SDS011;28407;51.830;5.684;2023-04-01T03:31:26;2.92;;;2.70;;
42754;SDS011;28407;51.830;5.684;2023-04-01T03:33:30;2.45;;;2.25;;
42754;SDS011;28407;51.830;5.684;2023-04-01T03:35:31;3.10;;;2.50;;
42754;SDS011;28407;51.830;5.684;2023-04-01T03:37:32;2.53;;;2.17;;
42754;SDS011;28407;51.830;5.684;2023-04-01T03:39:33;2.92;;;2.10;;
42754;SDS011;28407;51.830;5.684;2023-04-01T03:41:36;2.95;;;2.65;;
42754;SDS011;28407;51.830;5.684;2023-04-01T03:43:37;3.25;;;2.63;;
42754;SDS011;28407;51.830;5.684;2023-04-01T03:45:44;2.20;;;2.10;;
42754;SDS011;28407;51.830;5.684;2023-04-01T03:47:46;2.85;;;2.50;;
42754;SDS011;28407;51.830;5.684;2023-04-01T03:49:47;2.50;;;2.30;;
42754;SDS011;28407;51.830;5.684;2023-04-01T03:51:48;2.72;;;2.30;;
42754;SDS011;28407;51.830;5.684;2023-04-01T03:53:48;2.50;;;2.30;;
42754;SDS011;28407;51.830;5.684;2023-04-01T03:55:50;2.80;;;2.60;;
42754;SDS011;28407;51.830;5.684;2023-04-01T03:57:51;2.70;;;2.50;;
42754;SDS011;28407;51.830;5.684;2023-04-01T03:59:52;3.28;;;2.40;;
42754;SDS011;28407;51.830;5.684;2023-04-01T04:01:53;2.88;;;2.67;;
42754;SDS011;28407;51.830;5.684;2023-04-01T04:03:54;2.92;;;2.72;;
42754;SDS011;28407;51.830;5.684;2023-04-01T04:05:56;3.03;;;2.53;;
42754;SDS011;28407;51.830;5.684;2023-04-01T04:07:57;2.88;;;2.65;;
42754;SDS011;28407;51.830;5.684;2023-04-01T04:09:57;3.28;;;2.97;;
42754;SDS011;28407;51.830;5.684;2023-04-01T04:11:59;3.50;;;3.17;;
42754;SDS011;28407;51.830;5.684;2023-04-01T04:14:01;4.32;;;3.13;;
42754;SDS011;28407;51.830;5.684;2023-04-01T04:16:02;3.42;;;3.13;;
42754;SDS011;28407;51.830;5.684;2023-04-01T04:20:05;3.80;;;3.38;;
42754;SDS011;28407;51.830;5.684;2023-04-01T04:22:06;4.27;;;3.87;;
42754;SDS011;28407;51.830;5.684;2023-04-01T04:24:06;3.60;;;3.30;;
42754;SDS011;28407;51.830;5.684;2023-04-01T04:26:32;3.85;;;3.40;;
42754;SDS011;28407;51.830;5.684;2023-04-01T04:28:34;4.35;;;3.95;;
42754;SDS011;28407;51.830;5.684;2023-04-01T04:30:35;5.65;;;3.90;;
42754;SDS011;28407;51.830;5.684;2023-04-01T04:32:37;4.88;;;4.10;;
42754;SDS011;28407;51.830;5.684;2023-04-01T04:34:38;4.68;;;4.15;;
42754;SDS011;28407;51.830;5.684;2023-04-01T04:36:39;4.90;;;4.50;;
42754;SDS011;28407;51.830;5.684;2023-04-01T04:38:39;4.95;;;4.47;;
42754;SDS011;28407;51.830;5.684;2023-04-01T04:40:41;5.03;;;4.40;;
42754;SDS011;28407;51.830;5.684;2023-04-01T04:42:43;5.30;;;4.80;;
42754;SDS011;28407;51.830;5.684;2023-04-01T04:44:47;5.10;;;4.45;;
42754;SDS011;28407;51.830;5.684;2023-04-01T04:46:47;4.93;;;4.43;;
42754;SDS011;28407;51.830;5.684;2023-04-01T04:48:49;5.20;;;4.45;;
42754;SDS011;28407;51.830;5.684;2023-04-01T04:50:51;4.63;;;4.23;;
42754;SDS011;28407;51.830;5.684;2023-04-01T04:52:53;4.90;;;4.20;;
42754;SDS011;28407;51.830;5.684;2023-04-01T04:54:54;4.47;;;3.92;;
42754;SDS011;28407;51.830;5.684;2023-04-01T04:56:55;4.47;;;4.07;;
42754;SDS011;28407;51.830;5.684;2023-04-01T04:58:57;4.45;;;4.05;;
42754;SDS011;28407;51.830;5.684;2023-04-01T05:01:11;4.30;;;3.90;;
42754;SDS011;28407;51.830;5.684;2023-04-01T05:03:14;4.25;;;3.78;;
42754;SDS011;28407;51.830;5.684;2023-04-01T05:05:15;4.35;;;3.95;;
42754;SDS011;28407;51.830;5.684;2023-04-01T05:07:15;4.43;;;3.88;;
42754;SDS011;28407;51.830;5.684;2023-04-01T05:09:17;4.33;;;3.70;;
42754;SDS011;28407;51.830;5.684;2023-04-01T05:11:19;4.32;;;3.95;;
42754;SDS011;28407;51.830;5.684;2023-04-01T05:13:20;4.65;;;4.25;;
42754;SDS011;28407;51.830;5.684;2023-04-01T05:15:21;4.55;;;4.15;;
42754;SDS011;28407;51.830;5.684;2023-04-01T05:17:22;4.25;;;3.83;;
42754;SDS011;28407;51.830;5.684;2023-04-01T05:19:23;6.53;;;4.40;;
42754;SDS011;28407;51.830;5.684;2023-04-01T05:21:24;5.15;;;4.65;;
42754;SDS011;28407;51.830;5.684;2023-04-01T05:23:25;6.53;;;3.95;;
42754;SDS011;28407;51.830;5.684;2023-04-01T05:25:26;4.40;;;3.97;;
42754;SDS011;28407;51.830;5.684;2023-04-01T05:27:27;3.95;;;3.55;;
42754;SDS011;28407;51.830;5.684;2023-04-01T05:29:28;4.47;;;4.07;;
42754;SDS011;28407;51.830;5.684;2023-04-01T05:31:36;5.60;;;4.50;;
42754;SDS011;28407;51.830;5.684;2023-04-01T05:33:38;5.10;;;4.47;;
42754;SDS011;28407;51.830;5.684;2023-04-01T05:35:39;5.80;;;5.20;;
42754;SDS011;28407;51.830;5.684;2023-04-01T05:37:40;5.50;;;5.00;;
42754;SDS011;28407;51.830;5.684;2023-04-01T05:39:41;6.10;;;4.97;;
42754;SDS011;28407;51.830;5.684;2023-04-01T05:41:42;5.88;;;5.28;;
42754;SDS011;28407;51.830;5.684;2023-04-01T05:43:42;5.40;;;4.78;;
42754;SDS011;28407;51.830;5.684;2023-04-01T05:46:02;6.63;;;5.55;;
42754;SDS011;28407;51.830;5.684;2023-04-01T05:48:10;5.43;;;4.82;;
42754;SDS011;28407;51.830;5.684;2023-04-01T05:50:13;7.63;;;6.45;;
42754;SDS011;28407;51.830;5.684;2023-04-01T05:52:14;7.90;;;6.32;;
42754;SDS011;28407;51.830;5.684;2023-04-01T05:54:14;6.70;;;5.28;;
42754;SDS011;28407;51.830;5.684;2023-04-01T05:56:15;6.82;;;6.07;;
42754;SDS011;28407;51.830;5.684;2023-04-01T05:58:21;7.90;;;6.03;;
42754;SDS011;28407;51.830;5.684;2023-04-01T06:00:22;6.40;;;5.65;;
42754;SDS011;28407;51.830;5.684;2023-04-01T06:02:23;6.75;;;5.88;;
42754;SDS011;28407;51.830;5.684;2023-04-01T06:04:24;5.95;;;5.28;;
42754;SDS011;28407;51.830;5.684;2023-04-01T06:06:26;7.60;;;5.80;;
42754;SDS011;28407;51.830;5.684;2023-04-01T06:08:36;7.55;;;6.28;;
42754;SDS011;28407;51.830;5.684;2023-04-01T06:27:07;7.78;;;6.85;;
42754;SDS011;28407;51.830;5.684;2023-04-01T06:32:08;7.82;;;5.60;;
42754;SDS011;28407;51.830;5.684;2023-04-01T06:39:02;8.43;;;7.15;;
42754;SDS011;28407;51.830;5.684;2023-04-01T06:41:20;8.02;;;6.10;;
42754;SDS011;28407;51.830;5.684;2023-04-01T06:46:09;9.73;;;7.10;;
42754;SDS011;28407;51.830;5.684;2023-04-01T06:48:40;10.60;;;6.85;;
42754;SDS011;28407;51.830;5.684;2023-04-01T06:54:03;8.93;;;6.80;;
42754;SDS011;28407;51.830;5.684;2023-04-01T06:56:33;8.00;;;6.10;;
42754;SDS011;28407;51.830;5.684;2023-04-01T06:58:51;8.10;;;6.90;;
42754;SDS011;28407;51.830;5.684;2023-04-01T07:01:10;7.32;;;6.35;;
42754;SDS011;28407;51.830;5.684;2023-04-01T07:05:40;9.48;;;7.72;;
42754;SDS011;28407;51.830;5.684;2023-04-01T07:07:46;7.50;;;6.45;;
42754;SDS011;28407;51.830;5.684;2023-04-01T07:09:53;8.73;;;7.32;;
42754;SDS011;28407;51.830;5.684;2023-04-01T07:12:13;8.05;;;6.72;;
42754;SDS011;28407;51.830;5.684;2023-04-01T07:14:39;9.07;;;7.22;;
42754;SDS011;28407;51.830;5.684;2023-04-01T07:16:45;8.35;;;7.13;;
42754;SDS011;28407;51.830;5.684;2023-04-01T07:21:40;8.23;;;7.15;;
42754;SDS011;28407;51.830;5.684;2023-04-01T07:23:56;7.85;;;6.90;;
42754;SDS011;28407;51.830;5.684;2023-04-01T07:26:12;8.80;;;7.32;;
42754;SDS011;28407;51.830;5.684;2023-04-01T07:28:39;8.35;;;6.90;;
42754;SDS011;28407;51.830;5.684;2023-04-01T07:31:20;8.40;;;6.88;;
42754;SDS011;28407;51.830;5.684;2023-04-01T07:33:54;9.27;;;6.05;;
42754;SDS011;28407;51.830;5.684;2023-04-01T07:36:33;8.18;;;6.20;;
42754;SDS011;28407;51.830;5.684;2023-04-01T07:41:41;7.13;;;5.78;;
42754;SDS011;28407;51.830;5.684;2023-04-01T07:46:38;9.05;;;7.25;;
42754;SDS011;28407;51.830;5.684;2023-04-01T07:48:58;8.90;;;6.13;;
42754;SDS011;28407;51.830;5.684;2023-04-01T07:51:22;7.68;;;6.45;;
42754;SDS011;28407;51.830;5.684;2023-04-01T07:55:33;8.88;;;6.50;;
42754;SDS011;28407;51.830;5.684;2023-04-01T08:00:21;7.55;;;5.45;;
42754;SDS011;28407;51.830;5.684;2023-04-01T08:07:51;6.32;;;5.72;;
42754;SDS011;28407;51.830;5.684;2023-04-01T08:10:26;8.27;;;5.97;;
42754;SDS011;28407;51.830;5.684;2023-04-01T08:18:21;6.75;;;5.22;;
42754;SDS011;28407;51.830;5.684;2023-04-01T08:20:40;10.02;;;5.20;;
42754;SDS011;28407;51.830;5.684;2023-04-01T08:22:51;5.47;;;4.78;;
42754;SDS011;28407;51.830;5.684;2023-04-01T08:25:10;5.70;;;5.10;;
42754;SDS011;28407;51.830;5.684;2023-04-01T08:27:21;7.32;;;5.10;;
42754;SDS011;28407;51.830;5.684;2023-04-01T08:32:23;5.03;;;4.45;;
42754;SDS011;28407;51.830;5.684;2023-04-01T08:34:21;4.97;;;4.28;;
42754;SDS011;28407;51.830;5.684;2023-04-01T08:36:28;4.82;;;4.32;;
42754;SDS011;28407;51.830;5.684;2023-04-01T08:41:42;4.95;;;4.30;;
42754;SDS011;28407;51.830;5.684;2023-04-01T08:47:12;5.13;;;4.43;;
42754;SDS011;28407;51.830;5.684;2023-04-01T08:53:54;7.13;;;5.57;;
42754;SDS011;28407;51.830;5.684;2023-04-01T09:05:39;6.07;;;5.05;;
42754;SDS011;28407;51.830;5.684;2023-04-01T09:25:15;7.63;;;5.32;;
42754;SDS011;28407;51.830;5.684;2023-04-01T09:27:29;5.68;;;4.82;;
42754;SDS011;28407;51.830;5.684;2023-04-01T09:29:43;7.00;;;4.65;;
42754;SDS011;28407;51.830;5.684;2023-04-01T09:37:17;7.78;;;5.50;;
42754;SDS011;28407;51.830;5.684;2023-04-01T09:39:41;7.28;;;4.82;;
42754;SDS011;28407;51.830;5.684;2023-04-01T09:44:53;5.72;;;5.05;;
42754;SDS011;28407;51.830;5.684;2023-04-01T09:49:35;6.55;;;5.25;;
42754;SDS011;28407;51.830;5.684;2023-04-01T09:54:32;9.63;;;6.72;;
42754;SDS011;28407;51.830;5.684;2023-04-01T09:59:08;8.38;;;5.85;;
42754;SDS011;28407;51.830;5.684;2023-04-01T10:01:40;8.70;;;6.05;;
42754;SDS011;28407;51.830;5.684;2023-04-01T10:08:33;7.90;;;5.65;;
42754;SDS011;28407;51.830;5.684;2023-04-01T10:10:59;9.02;;;6.35;;
42754;SDS011;28407;51.830;5.684;2023-04-01T10:20:36;8.43;;;6.70;;
42754;SDS011;28407;51.830;5.684;2023-04-01T10:27:30;10.07;;;6.65;;
42754;SDS011;28407;51.830;5.684;2023-04-01T10:32:25;10.35;;;7.78;;
42754;SDS011;28407;51.830;5.684;2023-04-01T10:34:44;10.82;;;7.97;;
42754;SDS011;28407;51.830;5.684;2023-04-01T10:36:52;9.15;;;7.55;;
42754;SDS011;28407;51.830;5.684;2023-04-01T10:39:30;9.07;;;7.80;;
42754;SDS011;28407;51.830;5.684;2023-04-01T10:49:29;8.07;;;5.80;;
42754;SDS011;28407;51.830;5.684;2023-04-01T10:54:44;8.10;;;5.82;;
42754;SDS011;28407;51.830;5.684;2023-04-01T11:10:47;5.53;;;4.82;;
42754;SDS011;28407;51.830;5.684;2023-04-01T11:18:28;5.05;;;4.22;;
42754;SDS011;28407;51.830;5.684;2023-04-01T11:31:38;5.00;;;4.43;;
42754;SDS011;28407;51.830;5.684;2023-04-01T11:33:48;6.22;;;4.93;;
42754;SDS011;28407;51.830;5.684;2023-04-01T11:43:45;6.18;;;5.07;;
42754;SDS011;28407;51.830;5.684;2023-04-01T11:46:23;7.60;;;5.55;;
42754;SDS011;28407;51.830;5.684;2023-04-01T11:48:39;7.68;;;5.90;;
42754;SDS011;28407;51.830;5.684;2023-04-01T11:57:31;6.38;;;5.15;;
42754;SDS011;28407;51.830;5.684;2023-04-01T12:02:43;7.07;;;5.15;;
42754;SDS011;28407;51.830;5.684;2023-04-01T12:07:41;5.32;;;4.20;;
42754;SDS011;28407;51.830;5.684;2023-04-01T12:12:28;5.53;;;4.50;;
42754;SDS011;28407;51.830;5.684;2023-04-01T12:14:36;5.75;;;4.68;;
42754;SDS011;28407;51.830;5.684;2023-04-01T12:16:51;4.10;;;3.60;;
42754;SDS011;28407;51.830;5.684;2023-04-01T12:19:17;5.03;;;4.22;;
42754;SDS011;28407;51.830;5.684;2023-04-01T12:21:27;5.55;;;4.65;;
42754;SDS011;28407;51.830;5.684;2023-04-01T12:26:04;4.90;;;4.43;;
42754;SDS011;28407;51.830;5.684;2023-04-01T12:28:29;4.93;;;4.07;;
42754;SDS011;28407;51.830;5.684;2023-04-01T12:31:14;5.28;;;4.35;;
42754;SDS011;28407;51.830;5.684;2023-04-01T12:33:24;4.60;;;4.18;;
42754;SDS011;28407;51.830;5.684;2023-04-01T12:45:03;5.07;;;4.20;;
42754;SDS011;28407;51.830;5.684;2023-04-01T12:49:30;4.20;;;3.80;;
42754;SDS011;28407;51.830;5.684;2023-04-01T12:56:37;4.35;;;3.95;;
42754;SDS011;28407;51.830;5.684;2023-04-01T12:59:14;4.60;;;4.20;;
42754;SDS011;28407;51.830;5.684;2023-04-01T13:01:41;3.88;;;3.50;;
42754;SDS011;28407;51.830;5.684;2023-04-01T13:04:02;4.00;;;3.60;;
42754;SDS011;28407;51.830;5.684;2023-04-01T13:06:19;4.30;;;3.58;;
42754;SDS011;28407;51.830;5.684;2023-04-01T13:10:58;4.78;;;3.75;;
42754;SDS011;28407;51.830;5.684;2023-04-01T13:20:35;3.55;;;3.25;;
42754;SDS011;28407;51.830;5.684;2023-04-01T13:22:51;4.63;;;3.85;;
42754;SDS011;28407;51.830;5.684;2023-04-01T13:25:10;3.38;;;3.08;;
42754;SDS011;28407;51.830;5.684;2023-04-01T13:27:34;4.55;;;4.15;;
42754;SDS011;28407;51.830;5.684;2023-04-01T13:30:02;3.63;;;3.03;;
42754;SDS011;28407;51.830;5.684;2023-04-01T13:32:22;4.55;;;3.60;;
42754;SDS011;28407;51.830;5.684;2023-04-01T13:34:45;3.38;;;2.95;;
42754;SDS011;28407;51.830;5.684;2023-04-01T13:37:12;4.25;;;3.10;;
42754;SDS011;28407;51.830;5.684;2023-04-01T13:48:48;2.92;;;2.63;;
42754;SDS011;28407;51.830;5.684;2023-04-01T13:51:22;2.95;;;2.35;;
42754;SDS011;28407;51.830;5.684;2023-04-01T13:54:05;2.13;;;1.92;;
42754;SDS011;28407;51.830;5.684;2023-04-01T14:12:09;4.38;;;1.88;;
42754;SDS011;28407;51.830;5.684;2023-04-01T14:17:05;3.78;;;1.88;;
42754;SDS011;28407;51.830;5.684;2023-04-01T14:19:27;3.88;;;2.10;;
42754;SDS011;28407;51.830;5.684;2023-04-01T14:21:38;2.35;;;1.92;;
42754;SDS011;28407;51.830;5.684;2023-04-01T14:26:11;2.50;;;2.30;;
42754;SDS011;28407;51.830;5.684;2023-04-01T14:33:25;3.70;;;2.30;;
42754;SDS011;28407;51.830;5.684;2023-04-01T14:35:38;3.20;;;2.85;;
42754;SDS011;28407;51.830;5.684;2023-04-01T14:42:27;4.30;;;3.03;;
42754;SDS011;28407;51.830;5.684;2023-04-01T14:49:35;5.50;;;2.95;;
42754;SDS011;28407;51.830;5.684;2023-04-01T14:51:39;5.22;;;3.22;;
42754;SDS011;28407;51.830;5.684;2023-04-01T14:53:43;3.47;;;3.10;;
42754;SDS011;28407;51.830;5.684;2023-04-01T14:55:54;2.90;;;2.60;;
42754;SDS011;28407;51.830;5.684;2023-04-01T14:58:04;3.15;;;2.63;;
42754;SDS011;28407;51.830;5.684;2023-04-01T15:00:14;3.42;;;2.80;;
42754;SDS011;28407;51.830;5.684;2023-04-01T15:11:32;2.78;;;2.25;;
42754;SDS011;28407;51.830;5.684;2023-04-01T15:14:12;2.78;;;2.47;;
42754;SDS011;28407;51.830;5.684;2023-04-01T15:23:21;2.35;;;2.15;;
42754;SDS011;28407;51.830;5.684;2023-04-01T15:25:33;5.00;;;2.67;;
42754;SDS011;28407;51.830;5.684;2023-04-01T15:27:51;3.80;;;3.22;;
42754;SDS011;28407;51.830;5.684;2023-04-01T15:35:13;3.38;;;2.47;;
42754;SDS011;28407;51.830;5.684;2023-04-01T15:39:52;2.92;;;2.50;;
42754;SDS011;28407;51.830;5.684;2023-04-01T15:42:31;3.40;;;3.03;;
42754;SDS011;28407;51.830;5.684;2023-04-01T15:46:52;2.90;;;2.40;;
42754;SDS011;28407;51.830;5.684;2023-04-01T15:51:02;2.60;;;2.40;;
42754;SDS011;28407;51.830;5.684;2023-04-01T15:53:37;2.33;;;2.13;;
42754;SDS011;28407;51.830;5.684;2023-04-01T15:56:15;2.90;;;2.38;;
42754;SDS011;28407;51.830;5.684;2023-04-01T15:58:37;2.80;;;2.28;;
42754;SDS011;28407;51.830;5.684;2023-04-01T16:00:49;3.10;;;2.20;;
42754;SDS011;28407;51.830;5.684;2023-04-01T16:07:55;2.50;;;2.30;;
42754;SDS011;28407;51.830;5.684;2023-04-01T16:12:34;3.20;;;2.40;;
42754;SDS011;28407;51.830;5.684;2023-04-01T16:19:15;2.85;;;2.20;;
42754;SDS011;28407;51.830;5.684;2023-04-01T16:22:31;2.70;;;2.42;;
42754;SDS011;28407;51.830;5.684;2023-04-01T16:24:15;2.28;;;2.08;;
42754;SDS011;28407;51.830;5.684;2023-04-01T16:28:52;2.55;;;2.10;;
42754;SDS011;28407;51.830;5.684;2023-04-01T16:35:43;2.78;;;2.42;;
42754;SDS011;28407;51.830;5.684;2023-04-01T16:38:19;2.88;;;2.60;;
42754;SDS011;28407;51.830;5.684;2023-04-01T16:47:53;2.42;;;2.22;;
42754;SDS011;28407;51.830;5.684;2023-04-01T16:50:19;2.73;;;2.53;;
42754;SDS011;28407;51.830;5.684;2023-04-01T16:52:48;2.60;;;2.40;;
42754;SDS011;28407;51.830;5.684;2023-04-01T16:55:15;4.45;;;2.30;;
42754;SDS011;28407;51.830;5.684;2023-04-01T16:57:19;2.42;;;2.22;;
42754;SDS011;28407;51.830;5.684;2023-04-01T16:59:47;2.45;;;2.25;;
42754;SDS011;28407;51.830;5.684;2023-04-01T17:01:54;2.80;;;2.50;;
42754;SDS011;28407;51.830;5.684;2023-04-01T17:04:06;2.97;;;2.67;;
42754;SDS011;28407;51.830;5.684;2023-04-01T17:10:31;2.83;;;2.63;;
42754;SDS011;28407;51.830;5.684;2023-04-01T17:14:52;2.88;;;2.67;;
42754;SDS011;28407;51.830;5.684;2023-04-01T17:24:18;3.20;;;2.90;;
42754;SDS011;28407;51.830;5.684;2023-04-01T17:26:39;2.95;;;2.67;;
42754;SDS011;28407;51.830;5.684;2023-04-01T17:28:51;3.38;;;2.55;;
42754;SDS011;28407;51.830;5.684;2023-04-01T17:35:31;2.80;;;2.60;;
42754;SDS011;28407;51.830;5.684;2023-04-01T17:37:40;3.30;;;2.90;;
42754;SDS011;28407;51.830;5.684;2023-04-01T17:47:17;2.83;;;2.63;;
42754;SDS011;28407;51.830;5.684;2023-04-01T18:02:20;3.20;;;2.90;;
42754;SDS011;28407;51.830;5.684;2023-04-01T18:04:30;2.90;;;2.63;;
42754;SDS011;28407;51.830;5.684;2023-04-01T18:06:55;3.15;;;2.70;;
42754;SDS011;28407;51.830;5.684;2023-04-01T18:14:02;2.70;;;2.50;;
42754;SDS011;28407;51.830;5.684;2023-04-01T18:16:26;3.20;;;2.90;;
42754;SDS011;28407;51.830;5.684;2023-04-01T18:18:42;3.85;;;3.47;;
42754;SDS011;28407;51.830;5.684;2023-04-01T18:21:14;3.40;;;3.10;;
42754;SDS011;28407;51.830;5.684;2023-04-01T18:23:35;3.60;;;3.30;;
42754;SDS011;28407;51.830;5.684;2023-04-01T18:25:42;3.72;;;3.22;;
42754;SDS011;28407;51.830;5.684;2023-04-01T18:27:52;3.75;;;3.42;;
42754;SDS011;28407;51.830;5.684;2023-04-01T18:32:36;3.70;;;3.40;;
42754;SDS011;28407;51.830;5.684;2023-04-01T18:37:21;3.40;;;3.05;;
42754;SDS011;28407;51.830;5.684;2023-04-01T18:39:37;3.22;;;2.92;;
42754;SDS011;28407;51.830;5.684;2023-04-01T18:41:56;3.45;;;3.15;;
42754;SDS011;28407;51.830;5.684;2023-04-01T18:46:39;3.75;;;3.40;;
42754;SDS011;28407;51.830;5.684;2023-04-01T18:51:16;3.58;;;3.28;;
42754;SDS011;28407;51.830;5.684;2023-04-01T18:55:39;3.88;;;3.42;;
42754;SDS011;28407;51.830;5.684;2023-04-01T18:57:52;3.65;;;3.35;;
42754;SDS011;28407;51.830;5.684;2023-04-01T19:00:14;3.28;;;2.97;;
42754;SDS011;28407;51.830;5.684;2023-04-01T19:02:32;3.17;;;2.88;;
42754;SDS011;28407;51.830;5.684;2023-04-01T19:08:12;3.75;;;3.45;;
42754;SDS011;28407;51.830;5.684;2023-04-01T19:09:45;4.53;;;3.20;;
42754;SDS011;28407;51.830;5.684;2023-04-01T19:14:13;4.25;;;3.85;;
42754;SDS011;28407;51.830;5.684;2023-04-01T19:21:26;4.57;;;4.18;;
42754;SDS011;28407;51.830;5.684;2023-04-01T19:26:11;4.15;;;3.83;;
42754;SDS011;28407;51.830;5.684;2023-04-01T19:28:31;4.85;;;4.45;;
42754;SDS011;28407;51.830;5.684;2023-04-01T19:30:59;4.47;;;4.07;;
42754;SDS011;28407;51.830;5.684;2023-04-01T19:33:40;4.75;;;4.35;;
42754;SDS011;28407;51.830;5.684;2023-04-01T19:47:42;4.82;;;4.40;;
42754;SDS011;28407;51.830;5.684;2023-04-01T19:49:55;5.00;;;4.60;;
42754;SDS011;28407;51.830;5.684;2023-04-01T19:52:04;4.53;;;4.13;;
42754;SDS011;28407;51.830;5.684;2023-04-01T19:56:33;4.95;;;4.55;;
42754;SDS011;28407;51.830;5.684;2023-04-01T19:59:27;4.78;;;4.38;;
42754;SDS011;28407;51.830;5.684;2023-04-01T20:01:23;4.40;;;4.00;;
42754;SDS011;28407;51.830;5.684;2023-04-01T20:04:17;4.22;;;3.83;;
42754;SDS011;28407;51.830;5.684;2023-04-01T20:08:40;5.30;;;4.80;;
42754;SDS011;28407;51.830;5.684;2023-04-01T20:11:03;5.35;;;4.80;;
42754;SDS011;28407;51.830;5.684;2023-04-01T20:15:40;4.50;;;4.10;;
42754;SDS011;28407;51.830;5.684;2023-04-01T20:17:44;4.88;;;4.45;;